sensor_id;sensor_type;location;lat;lon;timestamp;P1;durP1;ratioP1;P2;durP2;ratioP2
20639;SDS011;10479;53.524;9.846;2022-12-18T00:00:32;48.85;;;19.27;;
20639;SDS011;10479;53.524;9.846;2022-12-18T00:03:17;48.28;;;18.10;;
20639;SDS011;10479;53.524;9.846;2022-12-18T00:06:03;49.42;;;18.70;;
20639;SDS011;10479;53.524;9.846;2022-12-18T00:08:48;38.08;;;15.18;;
20639;SDS011;10479;53.524;9.846;2022-12-18T00:11:34;46.75;;;17.92;;
20639;SDS011;10479;53.524;9.846;2022-12-18T00:14:19;42.40;;;17.25;;
20639;SDS011;10479;53.524;9.846;2022-12-18T00:17:04;45.88;;;17.55;;
20639;SDS011;10479;53.524;9.846;2022-12-18T00:19:50;45.88;;;19.52;;
20639;SDS011;10479;53.524;9.846;2022-12-18T00:22:35;47.58;;;18.15;;
20639;SDS011;10479;53.524;9.846;2022-12-18T00:25:21;49.47;;;17.80;;
20639;SDS011;10479;53.524;9.846;2022-12-18T00:28:06;55.03;;;18.33;;
20639;SDS011;10479;53.524;9.846;2022-12-18T00:31:02;47.97;;;15.70;;
20639;SDS011;10479;53.524;9.846;2022-12-18T00:33:44;37.35;;;14.27;;
20639;SDS011;10479;53.524;9.846;2022-12-18T00:36:31;37.72;;;14.07;;
20639;SDS011;10479;53.524;9.846;2022-12-18T00:39:18;38.88;;;12.52;;
20639;SDS011;10479;53.524;9.846;2022-12-18T00:42:03;42.72;;;15.77;;
20639;SDS011;10479;53.524;9.846;2022-12-18T00:45:07;41.75;;;16.38;;
20639;SDS011;10479;53.524;9.846;2022-12-18T00:47:53;42.78;;;16.55;;
20639;SDS011;10479;53.524;9.846;2022-12-18T00:50:38;40.17;;;14.52;;
20639;SDS011;10479;53.524;9.846;2022-12-18T00:53:24;41.92;;;14.75;;
20639;SDS011;10479;53.524;9.846;2022-12-18T00:56:09;39.70;;;13.48;;
20639;SDS011;10479;53.524;9.846;2022-12-18T00:58:55;38.88;;;14.35;;
20639;SDS011;10479;53.524;9.846;2022-12-18T01:01:40;32.88;;;12.63;;
20639;SDS011;10479;53.524;9.846;2022-12-18T01:04:18;33.47;;;12.20;;
20639;SDS011;10479;53.524;9.846;2022-12-18T01:07:03;31.38;;;12.57;;
20639;SDS011;10479;53.524;9.846;2022-12-18T01:09:49;42.35;;;14.45;;
20639;SDS011;10479;53.524;9.846;2022-12-18T01:12:34;42.67;;;15.43;;
20639;SDS011;10479;53.524;9.846;2022-12-18T01:15:20;43.00;;;14.57;;
20639;SDS011;10479;53.524;9.846;2022-12-18T01:18:05;37.58;;;14.05;;
20639;SDS011;10479;53.524;9.846;2022-12-18T01:20:51;40.55;;;15.80;;
20639;SDS011;10479;53.524;9.846;2022-12-18T01:23:35;39.67;;;15.13;;
20639;SDS011;10479;53.524;9.846;2022-12-18T01:26:21;49.22;;;16.40;;
20639;SDS011;10479;53.524;9.846;2022-12-18T01:29:07;42.10;;;15.73;;
20639;SDS011;10479;53.524;9.846;2022-12-18T01:31:54;41.83;;;15.95;;
20639;SDS011;10479;53.524;9.846;2022-12-18T01:34:40;39.70;;;14.77;;
20639;SDS011;10479;53.524;9.846;2022-12-18T01:37:26;36.40;;;13.90;;
20639;SDS011;10479;53.524;9.846;2022-12-18T01:40:11;37.05;;;13.57;;
20639;SDS011;10479;53.524;9.846;2022-12-18T01:42:57;34.00;;;12.68;;
20639;SDS011;10479;53.524;9.846;2022-12-18T01:45:42;40.70;;;14.05;;
20639;SDS011;10479;53.524;9.846;2022-12-18T01:48:28;33.47;;;11.95;;
20639;SDS011;10479;53.524;9.846;2022-12-18T01:51:13;31.40;;;12.23;;
20639;SDS011;10479;53.524;9.846;2022-12-18T01:53:59;35.70;;;13.00;;
20639;SDS011;10479;53.524;9.846;2022-12-18T01:56:44;38.40;;;12.13;;
20639;SDS011;10479;53.524;9.846;2022-12-18T01:59:30;33.17;;;13.38;;
20639;SDS011;10479;53.524;9.846;2022-12-18T02:02:18;36.17;;;14.10;;
20639;SDS011;10479;53.524;9.846;2022-12-18T02:05:04;30.45;;;12.98;;
20639;SDS011;10479;53.524;9.846;2022-12-18T02:10:58;37.08;;;13.20;;
20639;SDS011;10479;53.524;9.846;2022-12-18T02:26:48;31.55;;;11.35;;
20639;SDS011;10479;53.524;9.846;2022-12-18T02:29:37;25.52;;;10.70;;
20639;SDS011;10479;53.524;9.846;2022-12-18T02:32:27;34.63;;;11.15;;
20639;SDS011;10479;53.524;9.846;2022-12-18T02:35:15;32.58;;;12.02;;
20639;SDS011;10479;53.524;9.846;2022-12-18T02:38:04;30.48;;;11.50;;
20639;SDS011;10479;53.524;9.846;2022-12-18T02:40:49;31.25;;;12.52;;
20639;SDS011;10479;53.524;9.846;2022-12-18T02:43:36;29.38;;;12.10;;
20639;SDS011;10479;53.524;9.846;2022-12-18T02:58:16;30.48;;;10.73;;
20639;SDS011;10479;53.524;9.846;2022-12-18T03:01:15;29.65;;;11.02;;
20639;SDS011;10479;53.524;9.846;2022-12-18T03:04:06;30.67;;;10.68;;
20639;SDS011;10479;53.524;9.846;2022-12-18T03:07:01;27.65;;;11.30;;
20639;SDS011;10479;53.524;9.846;2022-12-18T03:09:48;32.15;;;10.77;;
20639;SDS011;10479;53.524;9.846;2022-12-18T03:12:36;28.80;;;10.40;;
20639;SDS011;10479;53.524;9.846;2022-12-18T03:15:24;32.25;;;11.65;;
20639;SDS011;10479;53.524;9.846;2022-12-18T03:18:17;32.88;;;11.98;;
20639;SDS011;10479;53.524;9.846;2022-12-18T03:21:05;30.98;;;11.35;;
20639;SDS011;10479;53.524;9.846;2022-12-18T03:23:51;29.13;;;11.07;;
20639;SDS011;10479;53.524;9.846;2022-12-18T03:26:38;28.27;;;11.23;;
20639;SDS011;10479;53.524;9.846;2022-12-18T03:29:32;26.55;;;11.10;;
20639;SDS011;10479;53.524;9.846;2022-12-18T03:32:23;31.05;;;10.95;;
20639;SDS011;10479;53.524;9.846;2022-12-18T03:35:11;24.33;;;9.50;;
20639;SDS011;10479;53.524;9.846;2022-12-18T03:37:59;28.63;;;10.75;;
20639;SDS011;10479;53.524;9.846;2022-12-18T03:43:42;32.67;;;10.93;;
20639;SDS011;10479;53.524;9.846;2022-12-18T03:46:40;28.75;;;9.88;;
20639;SDS011;10479;53.524;9.846;2022-12-18T03:52:54;34.45;;;10.88;;
20639;SDS011;10479;53.524;9.846;2022-12-18T03:55:44;28.55;;;10.73;;
20639;SDS011;10479;53.524;9.846;2022-12-18T03:58:31;26.55;;;10.32;;
20639;SDS011;10479;53.524;9.846;2022-12-18T04:01:17;29.70;;;10.27;;
20639;SDS011;10479;53.524;9.846;2022-12-18T04:04:03;25.88;;;9.10;;
20639;SDS011;10479;53.524;9.846;2022-12-18T04:06:50;25.33;;;9.85;;
20639;SDS011;10479;53.524;9.846;2022-12-18T04:09:36;28.50;;;9.57;;
20639;SDS011;10479;53.524;9.846;2022-12-18T04:12:26;31.55;;;10.52;;
20639;SDS011;10479;53.524;9.846;2022-12-18T04:15:13;34.13;;;10.88;;
20639;SDS011;10479;53.524;9.846;2022-12-18T04:17:58;25.20;;;10.13;;
20639;SDS011;10479;53.524;9.846;2022-12-18T04:20:44;30.17;;;10.57;;
20639;SDS011;10479;53.524;9.846;2022-12-18T04:23:29;22.90;;;9.18;;
20639;SDS011;10479;53.524;9.846;2022-12-18T04:26:14;26.13;;;9.73;;
20639;SDS011;10479;53.524;9.846;2022-12-18T04:29:00;25.50;;;10.02;;
20639;SDS011;10479;53.524;9.846;2022-12-18T04:31:39;27.55;;;10.07;;
20639;SDS011;10479;53.524;9.846;2022-12-18T04:34:25;24.80;;;9.68;;
20639;SDS011;10479;53.524;9.846;2022-12-18T04:37:10;24.40;;;10.00;;
20639;SDS011;10479;53.524;9.846;2022-12-18T04:39:56;29.45;;;9.48;;
20639;SDS011;10479;53.524;9.846;2022-12-18T04:42:41;27.20;;;8.98;;
20639;SDS011;10479;53.524;9.846;2022-12-18T04:45:26;24.67;;;9.23;;
20639;SDS011;10479;53.524;9.846;2022-12-18T04:48:10;26.60;;;9.68;;
20639;SDS011;10479;53.524;9.846;2022-12-18T04:50:55;24.35;;;9.30;;
20639;SDS011;10479;53.524;9.846;2022-12-18T04:53:41;24.55;;;9.23;;
20639;SDS011;10479;53.524;9.846;2022-12-18T04:56:26;25.00;;;8.75;;
20639;SDS011;10479;53.524;9.846;2022-12-18T04:59:11;30.27;;;9.88;;
20639;SDS011;10479;53.524;9.846;2022-12-18T05:01:57;24.15;;;9.77;;
20639;SDS011;10479;53.524;9.846;2022-12-18T05:04:36;27.77;;;9.73;;
20639;SDS011;10479;53.524;9.846;2022-12-18T05:07:22;25.58;;;10.38;;
20639;SDS011;10479;53.524;9.846;2022-12-18T05:10:07;27.27;;;10.18;;
20639;SDS011;10479;53.524;9.846;2022-12-18T05:12:53;29.35;;;10.73;;
20639;SDS011;10479;53.524;9.846;2022-12-18T05:15:50;26.75;;;10.35;;
20639;SDS011;10479;53.524;9.846;2022-12-18T05:18:36;29.55;;;10.70;;
20639;SDS011;10479;53.524;9.846;2022-12-18T05:21:22;27.00;;;10.55;;
20639;SDS011;10479;53.524;9.846;2022-12-18T05:24:07;25.70;;;10.32;;
20639;SDS011;10479;53.524;9.846;2022-12-18T05:26:52;33.55;;;11.68;;
20639;SDS011;10479;53.524;9.846;2022-12-18T05:29:38;28.63;;;10.35;;
20639;SDS011;10479;53.524;9.846;2022-12-18T05:32:23;26.10;;;10.75;;
20639;SDS011;10479;53.524;9.846;2022-12-18T05:35:09;27.30;;;11.27;;
20639;SDS011;10479;53.524;9.846;2022-12-18T05:37:55;31.48;;;13.20;;
20639;SDS011;10479;53.524;9.846;2022-12-18T05:40:41;35.17;;;11.73;;
20639;SDS011;10479;53.524;9.846;2022-12-18T05:43:28;36.58;;;11.50;;
20639;SDS011;10479;53.524;9.846;2022-12-18T05:46:14;29.42;;;10.88;;
20639;SDS011;10479;53.524;9.846;2022-12-18T05:49:01;26.90;;;10.15;;
20639;SDS011;10479;53.524;9.846;2022-12-18T05:51:46;25.00;;;9.85;;
20639;SDS011;10479;53.524;9.846;2022-12-18T05:54:32;24.40;;;9.93;;
20639;SDS011;10479;53.524;9.846;2022-12-18T05:57:17;26.15;;;10.18;;
20639;SDS011;10479;53.524;9.846;2022-12-18T06:00:03;25.60;;;9.57;;
20639;SDS011;10479;53.524;9.846;2022-12-18T06:02:48;31.40;;;10.32;;
20639;SDS011;10479;53.524;9.846;2022-12-18T06:05:38;26.92;;;10.15;;
20639;SDS011;10479;53.524;9.846;2022-12-18T06:08:23;25.63;;;9.95;;
20639;SDS011;10479;53.524;9.846;2022-12-18T06:11:08;28.48;;;10.45;;
20639;SDS011;10479;53.524;9.846;2022-12-18T06:13:54;32.08;;;10.63;;
20639;SDS011;10479;53.524;9.846;2022-12-18T06:16:40;31.02;;;10.80;;
20639;SDS011;10479;53.524;9.846;2022-12-18T06:19:26;25.60;;;9.77;;
20639;SDS011;10479;53.524;9.846;2022-12-18T06:22:11;27.25;;;9.65;;
20639;SDS011;10479;53.524;9.846;2022-12-18T06:24:53;28.92;;;9.75;;
20639;SDS011;10479;53.524;9.846;2022-12-18T06:27:38;30.55;;;9.93;;
20639;SDS011;10479;53.524;9.846;2022-12-18T06:30:24;27.40;;;9.73;;
20639;SDS011;10479;53.524;9.846;2022-12-18T06:33:10;28.20;;;9.57;;
20639;SDS011;10479;53.524;9.846;2022-12-18T06:36:03;21.65;;;8.43;;
20639;SDS011;10479;53.524;9.846;2022-12-18T06:38:49;25.17;;;9.02;;
20639;SDS011;10479;53.524;9.846;2022-12-18T06:41:22;21.70;;;8.57;;
20639;SDS011;10479;53.524;9.846;2022-12-18T06:44:07;22.92;;;8.52;;
20639;SDS011;10479;53.524;9.846;2022-12-18T06:46:53;25.70;;;9.75;;
20639;SDS011;10479;53.524;9.846;2022-12-18T06:49:38;19.52;;;8.02;;
20639;SDS011;10479;53.524;9.846;2022-12-18T06:52:24;25.00;;;8.60;;
20639;SDS011;10479;53.524;9.846;2022-12-18T06:55:10;23.83;;;9.75;;
20639;SDS011;10479;53.524;9.846;2022-12-18T06:57:55;27.13;;;9.13;;
20639;SDS011;10479;53.524;9.846;2022-12-18T07:00:41;24.33;;;9.23;;
20639;SDS011;10479;53.524;9.846;2022-12-18T07:03:26;23.65;;;8.93;;
20639;SDS011;10479;53.524;9.846;2022-12-18T07:06:13;22.40;;;8.55;;
20639;SDS011;10479;53.524;9.846;2022-12-18T07:09:00;27.05;;;9.07;;
20639;SDS011;10479;53.524;9.846;2022-12-18T07:11:45;24.63;;;9.02;;
20639;SDS011;10479;53.524;9.846;2022-12-18T07:14:30;25.67;;;9.25;;
20639;SDS011;10479;53.524;9.846;2022-12-18T07:17:16;24.98;;;9.07;;
20639;SDS011;10479;53.524;9.846;2022-12-18T07:20:03;21.83;;;7.57;;
20639;SDS011;10479;53.524;9.846;2022-12-18T07:22:48;20.95;;;7.82;;
20639;SDS011;10479;53.524;9.846;2022-12-18T07:25:34;26.23;;;8.85;;
20639;SDS011;10479;53.524;9.846;2022-12-18T07:28:20;22.38;;;7.70;;
20639;SDS011;10479;53.524;9.846;2022-12-18T07:33:38;24.50;;;8.35;;
20639;SDS011;10479;53.524;9.846;2022-12-18T07:36:24;20.40;;;7.57;;
20639;SDS011;10479;53.524;9.846;2022-12-18T07:39:10;21.80;;;8.55;;
20639;SDS011;10479;53.524;9.846;2022-12-18T07:41:56;17.83;;;7.63;;
20639;SDS011;10479;53.524;9.846;2022-12-18T07:45:00;20.77;;;6.68;;
20639;SDS011;10479;53.524;9.846;2022-12-18T07:47:46;21.63;;;8.13;;
20639;SDS011;10479;53.524;9.846;2022-12-18T07:50:31;19.77;;;7.72;;
20639;SDS011;10479;53.524;9.846;2022-12-18T07:53:16;23.80;;;8.00;;
20639;SDS011;10479;53.524;9.846;2022-12-18T07:56:06;18.35;;;7.72;;
20639;SDS011;10479;53.524;9.846;2022-12-18T07:58:55;24.05;;;7.85;;
20639;SDS011;10479;53.524;9.846;2022-12-18T08:01:41;21.80;;;8.13;;
20639;SDS011;10479;53.524;9.846;2022-12-18T08:04:26;21.88;;;8.20;;
20639;SDS011;10479;53.524;9.846;2022-12-18T08:07:10;17.38;;;7.30;;
20639;SDS011;10479;53.524;9.846;2022-12-18T08:09:55;20.92;;;8.13;;
20639;SDS011;10479;53.524;9.846;2022-12-18T08:12:41;29.08;;;8.48;;
20639;SDS011;10479;53.524;9.846;2022-12-18T08:15:26;25.30;;;9.10;;
20639;SDS011;10479;53.524;9.846;2022-12-18T08:18:11;23.55;;;8.80;;
20639;SDS011;10479;53.524;9.846;2022-12-18T08:20:57;21.00;;;8.35;;
20639;SDS011;10479;53.524;9.846;2022-12-18T08:23:42;23.48;;;9.70;;
20639;SDS011;10479;53.524;9.846;2022-12-18T08:26:13;22.75;;;8.63;;
20639;SDS011;10479;53.524;9.846;2022-12-18T08:28:59;23.73;;;8.20;;
20639;SDS011;10479;53.524;9.846;2022-12-18T08:31:45;23.42;;;8.60;;
20639;SDS011;10479;53.524;9.846;2022-12-18T08:34:30;20.52;;;8.48;;
20639;SDS011;10479;53.524;9.846;2022-12-18T08:37:15;24.45;;;8.80;;
20639;SDS011;10479;53.524;9.846;2022-12-18T08:39:51;21.50;;;9.07;;
20639;SDS011;10479;53.524;9.846;2022-12-18T08:42:36;21.20;;;9.30;;
20639;SDS011;10479;53.524;9.846;2022-12-18T08:45:40;28.38;;;9.38;;
20639;SDS011;10479;53.524;9.846;2022-12-18T08:48:26;23.10;;;9.68;;
20639;SDS011;10479;53.524;9.846;2022-12-18T08:51:11;22.70;;;9.48;;
20639;SDS011;10479;53.524;9.846;2022-12-18T08:53:57;22.33;;;9.75;;
20639;SDS011;10479;53.524;9.846;2022-12-18T08:56:42;25.25;;;9.20;;
20639;SDS011;10479;53.524;9.846;2022-12-18T08:59:16;25.58;;;9.23;;
20639;SDS011;10479;53.524;9.846;2022-12-18T09:02:01;28.65;;;9.88;;
20639;SDS011;10479;53.524;9.846;2022-12-18T09:04:47;23.85;;;9.25;;
20639;SDS011;10479;53.524;9.846;2022-12-18T09:07:32;19.45;;;8.40;;
20639;SDS011;10479;53.524;9.846;2022-12-18T09:10:18;23.55;;;7.90;;
20639;SDS011;10479;53.524;9.846;2022-12-18T09:13:03;17.02;;;6.88;;
20639;SDS011;10479;53.524;9.846;2022-12-18T09:15:50;15.25;;;6.88;;
20639;SDS011;10479;53.524;9.846;2022-12-18T09:18:36;18.10;;;7.63;;
20639;SDS011;10479;53.524;9.846;2022-12-18T09:21:22;18.58;;;8.13;;
20639;SDS011;10479;53.524;9.846;2022-12-18T09:24:08;27.90;;;7.85;;
20639;SDS011;10479;53.524;9.846;2022-12-18T09:26:57;17.27;;;6.85;;
20639;SDS011;10479;53.524;9.846;2022-12-18T09:29:43;14.95;;;6.47;;
20639;SDS011;10479;53.524;9.846;2022-12-18T09:32:28;15.35;;;6.63;;
20639;SDS011;10479;53.524;9.846;2022-12-18T09:35:13;16.15;;;7.50;;
20639;SDS011;10479;53.524;9.846;2022-12-18T09:37:59;18.80;;;7.30;;
20639;SDS011;10479;53.524;9.846;2022-12-18T09:40:48;15.73;;;7.65;;
20639;SDS011;10479;53.524;9.846;2022-12-18T09:43:37;19.40;;;7.60;;
20639;SDS011;10479;53.524;9.846;2022-12-18T09:46:36;18.90;;;8.43;;
20639;SDS011;10479;53.524;9.846;2022-12-18T09:49:24;18.50;;;7.60;;
20639;SDS011;10479;53.524;9.846;2022-12-18T09:52:29;18.25;;;8.18;;
20639;SDS011;10479;53.524;9.846;2022-12-18T09:55:32;16.73;;;7.10;;
20639;SDS011;10479;53.524;9.846;2022-12-18T10:01:18;20.95;;;8.10;;
20639;SDS011;10479;53.524;9.846;2022-12-18T10:04:07;15.45;;;7.35;;
20639;SDS011;10479;53.524;9.846;2022-12-18T10:09:55;20.42;;;8.77;;
20639;SDS011;10479;53.524;9.846;2022-12-18T10:20:28;20.83;;;8.13;;
20639;SDS011;10479;53.524;9.846;2022-12-18T10:22:57;19.02;;;7.72;;
20639;SDS011;10479;53.524;9.846;2022-12-18T10:25:53;20.77;;;7.75;;
20639;SDS011;10479;53.524;9.846;2022-12-18T10:28:42;18.60;;;8.15;;
20639;SDS011;10479;53.524;9.846;2022-12-18T10:31:28;15.88;;;6.25;;
20639;SDS011;10479;53.524;9.846;2022-12-18T10:34:14;15.88;;;6.80;;
20639;SDS011;10479;53.524;9.846;2022-12-18T10:37:00;17.70;;;7.18;;
20639;SDS011;10479;53.524;9.846;2022-12-18T10:39:46;14.45;;;6.97;;
20639;SDS011;10479;53.524;9.846;2022-12-18T10:42:32;17.85;;;6.65;;
20639;SDS011;10479;53.524;9.846;2022-12-18T10:45:18;14.82;;;6.78;;
20639;SDS011;10479;53.524;9.846;2022-12-18T10:48:03;18.13;;;7.65;;
20639;SDS011;10479;53.524;9.846;2022-12-18T10:50:49;16.02;;;7.35;;
20639;SDS011;10479;53.524;9.846;2022-12-18T10:53:36;19.50;;;8.20;;
20639;SDS011;10479;53.524;9.846;2022-12-18T10:56:22;16.60;;;8.02;;
20639;SDS011;10479;53.524;9.846;2022-12-18T10:59:10;20.73;;;8.48;;
20639;SDS011;10479;53.524;9.846;2022-12-18T11:01:57;17.08;;;7.90;;
20639;SDS011;10479;53.524;9.846;2022-12-18T11:04:34;18.05;;;7.85;;
20639;SDS011;10479;53.524;9.846;2022-12-18T11:07:20;18.77;;;7.43;;
20639;SDS011;10479;53.524;9.846;2022-12-18T11:10:05;16.55;;;7.53;;
20639;SDS011;10479;53.524;9.846;2022-12-18T11:13:10;14.70;;;7.05;;
20639;SDS011;10479;53.524;9.846;2022-12-18T11:16:06;19.63;;;8.75;;
20639;SDS011;10479;53.524;9.846;2022-12-18T11:18:51;17.55;;;7.70;;
20639;SDS011;10479;53.524;9.846;2022-12-18T11:21:40;17.60;;;7.43;;
20639;SDS011;10479;53.524;9.846;2022-12-18T11:27:19;14.95;;;6.75;;
20639;SDS011;10479;53.524;9.846;2022-12-18T11:30:08;19.85;;;7.25;;
20639;SDS011;10479;53.524;9.846;2022-12-18T11:33:15;14.82;;;6.15;;
20639;SDS011;10479;53.524;9.846;2022-12-18T11:36:04;20.25;;;7.93;;
20639;SDS011;10479;53.524;9.846;2022-12-18T11:38:53;16.38;;;6.82;;
20639;SDS011;10479;53.524;9.846;2022-12-18T11:41:56;18.67;;;7.85;;
20639;SDS011;10479;53.524;9.846;2022-12-18T11:45:08;21.10;;;7.45;;
20639;SDS011;10479;53.524;9.846;2022-12-18T11:48:23;26.08;;;7.55;;
20639;SDS011;10479;53.524;9.846;2022-12-18T11:51:10;19.05;;;7.25;;
20639;SDS011;10479;53.524;9.846;2022-12-18T11:54:07;17.83;;;7.25;;
20639;SDS011;10479;53.524;9.846;2022-12-18T11:57:02;21.55;;;8.77;;
20639;SDS011;10479;53.524;9.846;2022-12-18T12:03:14;17.77;;;8.07;;
20639;SDS011;10479;53.524;9.846;2022-12-18T12:21:07;15.95;;;6.53;;
20639;SDS011;10479;53.524;9.846;2022-12-18T12:23:57;15.27;;;6.82;;
20639;SDS011;10479;53.524;9.846;2022-12-18T12:30:07;24.67;;;9.52;;
20639;SDS011;10479;53.524;9.846;2022-12-18T12:36:25;23.25;;;10.60;;
20639;SDS011;10479;53.524;9.846;2022-12-18T12:39:17;23.38;;;10.52;;
20639;SDS011;10479;53.524;9.846;2022-12-18T12:42:08;26.73;;;10.75;;
20639;SDS011;10479;53.524;9.846;2022-12-18T12:45:20;23.92;;;10.38;;
20639;SDS011;10479;53.524;9.846;2022-12-18T12:48:15;25.92;;;11.27;;
20639;SDS011;10479;53.524;9.846;2022-12-18T12:51:06;25.35;;;11.13;;
20639;SDS011;10479;53.524;9.846;2022-12-18T12:53:56;26.93;;;11.20;;
20639;SDS011;10479;53.524;9.846;2022-12-18T12:56:54;26.92;;;11.30;;
20639;SDS011;10479;53.524;9.846;2022-12-18T13:00:01;32.83;;;12.07;;
20639;SDS011;10479;53.524;9.846;2022-12-18T13:02:59;28.85;;;11.13;;
20639;SDS011;10479;53.524;9.846;2022-12-18T13:05:54;29.63;;;10.88;;
20639;SDS011;10479;53.524;9.846;2022-12-18T13:08:58;28.20;;;11.32;;
20639;SDS011;10479;53.524;9.846;2022-12-18T13:11:45;29.45;;;11.65;;
20639;SDS011;10479;53.524;9.846;2022-12-18T13:14:50;28.08;;;11.45;;
20639;SDS011;10479;53.524;9.846;2022-12-18T13:17:35;29.60;;;11.95;;
20639;SDS011;10479;53.524;9.846;2022-12-18T13:20:21;26.92;;;11.63;;
20639;SDS011;10479;53.524;9.846;2022-12-18T13:29:02;32.58;;;12.18;;
20639;SDS011;10479;53.524;9.846;2022-12-18T13:34:33;32.13;;;12.77;;
20639;SDS011;10479;53.524;9.846;2022-12-18T13:43:46;31.13;;;13.00;;
20639;SDS011;10479;53.524;9.846;2022-12-18T13:52:26;38.03;;;14.15;;
20639;SDS011;10479;53.524;9.846;2022-12-18T13:55:17;38.53;;;13.35;;
20639;SDS011;10479;53.524;9.846;2022-12-18T13:58:04;36.15;;;13.65;;
20639;SDS011;10479;53.524;9.846;2022-12-18T14:00:50;38.38;;;14.18;;
20639;SDS011;10479;53.524;9.846;2022-12-18T14:03:35;37.03;;;13.85;;
20639;SDS011;10479;53.524;9.846;2022-12-18T14:06:21;36.05;;;13.88;;
20639;SDS011;10479;53.524;9.846;2022-12-18T14:09:08;37.92;;;14.82;;
20639;SDS011;10479;53.524;9.846;2022-12-18T14:11:57;41.13;;;14.48;;
20639;SDS011;10479;53.524;9.846;2022-12-18T14:15:02;42.00;;;16.00;;
20639;SDS011;10479;53.524;9.846;2022-12-18T14:17:47;37.75;;;14.40;;
20639;SDS011;10479;53.524;9.846;2022-12-18T14:20:36;41.33;;;15.23;;
20639;SDS011;10479;53.524;9.846;2022-12-18T14:26:22;39.95;;;16.55;;
20639;SDS011;10479;53.524;9.846;2022-12-18T14:29:41;40.28;;;14.90;;
20639;SDS011;10479;53.524;9.846;2022-12-18T14:32:20;42.22;;;15.90;;
20639;SDS011;10479;53.524;9.846;2022-12-18T14:35:12;43.03;;;16.42;;
20639;SDS011;10479;53.524;9.846;2022-12-18T14:44:05;48.80;;;17.05;;
20639;SDS011;10479;53.524;9.846;2022-12-18T14:46:51;49.97;;;16.38;;
20639;SDS011;10479;53.524;9.846;2022-12-18T14:49:37;44.30;;;15.95;;
20639;SDS011;10479;53.524;9.846;2022-12-18T14:52:27;48.10;;;16.70;;
20639;SDS011;10479;53.524;9.846;2022-12-18T14:55:15;44.97;;;14.98;;
20639;SDS011;10479;53.524;9.846;2022-12-18T14:58:01;44.95;;;16.88;;
20639;SDS011;10479;53.524;9.846;2022-12-18T15:00:47;43.40;;;15.73;;
20639;SDS011;10479;53.524;9.846;2022-12-18T15:03:32;46.35;;;16.75;;
20639;SDS011;10479;53.524;9.846;2022-12-18T15:06:21;47.10;;;16.45;;
20639;SDS011;10479;53.524;9.846;2022-12-18T15:09:24;55.00;;;17.85;;
20639;SDS011;10479;53.524;9.846;2022-12-18T15:12:28;49.28;;;18.25;;
20639;SDS011;10479;53.524;9.846;2022-12-18T15:18:32;54.72;;;17.27;;
20639;SDS011;10479;53.524;9.846;2022-12-18T15:21:19;46.45;;;16.83;;
20639;SDS011;10479;53.524;9.846;2022-12-18T15:24:13;50.72;;;17.52;;
20639;SDS011;10479;53.524;9.846;2022-12-18T15:26:57;55.70;;;17.92;;
20639;SDS011;10479;53.524;9.846;2022-12-18T15:29:43;54.72;;;19.23;;
20639;SDS011;10479;53.524;9.846;2022-12-18T15:36:16;59.47;;;20.92;;
20639;SDS011;10479;53.524;9.846;2022-12-18T15:39:02;54.92;;;19.42;;
20639;SDS011;10479;53.524;9.846;2022-12-18T15:41:48;59.60;;;19.90;;
20639;SDS011;10479;53.524;9.846;2022-12-18T15:44:52;48.78;;;18.45;;
20639;SDS011;10479;53.524;9.846;2022-12-18T15:47:37;55.50;;;19.80;;
20639;SDS011;10479;53.524;9.846;2022-12-18T15:50:23;59.08;;;21.38;;
20639;SDS011;10479;53.524;9.846;2022-12-18T15:53:08;55.17;;;18.95;;
20639;SDS011;10479;53.524;9.846;2022-12-18T15:55:54;59.42;;;20.33;;
20639;SDS011;10479;53.524;9.846;2022-12-18T15:58:58;54.42;;;18.95;;
20639;SDS011;10479;53.524;9.846;2022-12-18T16:01:47;56.05;;;20.40;;
20639;SDS011;10479;53.524;9.846;2022-12-18T16:04:34;58.20;;;19.50;;
20639;SDS011;10479;53.524;9.846;2022-12-18T16:07:19;51.30;;;19.10;;
20639;SDS011;10479;53.524;9.846;2022-12-18T16:09:53;58.00;;;18.33;;
20639;SDS011;10479;53.524;9.846;2022-12-18T16:12:39;57.03;;;20.02;;
20639;SDS011;10479;53.524;9.846;2022-12-18T16:15:24;60.10;;;19.77;;
20639;SDS011;10479;53.524;9.846;2022-12-18T16:18:10;66.85;;;23.17;;
20639;SDS011;10479;53.524;9.846;2022-12-18T16:20:56;54.70;;;19.35;;
20639;SDS011;10479;53.524;9.846;2022-12-18T16:23:41;54.90;;;18.83;;
20639;SDS011;10479;53.524;9.846;2022-12-18T16:26:26;64.45;;;20.48;;
20639;SDS011;10479;53.524;9.846;2022-12-18T16:29:12;56.20;;;19.05;;
20639;SDS011;10479;53.524;9.846;2022-12-18T16:31:58;61.08;;;21.70;;
20639;SDS011;10479;53.524;9.846;2022-12-18T16:34:45;60.20;;;20.00;;
20639;SDS011;10479;53.524;9.846;2022-12-18T16:37:30;66.03;;;21.30;;
20639;SDS011;10479;53.524;9.846;2022-12-18T16:40:16;62.22;;;22.45;;
20639;SDS011;10479;53.524;9.846;2022-12-18T16:43:02;57.50;;;18.83;;
20639;SDS011;10479;53.524;9.846;2022-12-18T16:45:47;59.97;;;21.02;;
20639;SDS011;10479;53.524;9.846;2022-12-18T16:48:33;64.30;;;19.70;;
20639;SDS011;10479;53.524;9.846;2022-12-18T16:51:18;56.40;;;19.83;;
20639;SDS011;10479;53.524;9.846;2022-12-18T16:54:04;56.85;;;20.70;;
20639;SDS011;10479;53.524;9.846;2022-12-18T16:56:50;56.10;;;19.17;;
20639;SDS011;10479;53.524;9.846;2022-12-18T16:59:36;64.03;;;19.00;;
20639;SDS011;10479;53.524;9.846;2022-12-18T17:02:22;64.57;;;21.52;;
20639;SDS011;10479;53.524;9.846;2022-12-18T17:05:09;52.45;;;18.33;;
20639;SDS011;10479;53.524;9.846;2022-12-18T17:07:54;59.22;;;21.42;;
20639;SDS011;10479;53.524;9.846;2022-12-18T17:10:40;53.42;;;19.73;;
20639;SDS011;10479;53.524;9.846;2022-12-18T17:13:25;56.15;;;18.90;;
20639;SDS011;10479;53.524;9.846;2022-12-18T17:16:11;51.25;;;17.58;;
20639;SDS011;10479;53.524;9.846;2022-12-18T17:18:56;59.08;;;18.63;;
20639;SDS011;10479;53.524;9.846;2022-12-18T17:21:47;57.55;;;19.05;;
20639;SDS011;10479;53.524;9.846;2022-12-18T17:24:33;60.40;;;22.33;;
20639;SDS011;10479;53.524;9.846;2022-12-18T17:27:19;55.58;;;20.15;;
20639;SDS011;10479;53.524;9.846;2022-12-18T17:30:04;44.33;;;16.67;;
20639;SDS011;10479;53.524;9.846;2022-12-18T17:32:50;52.47;;;19.05;;
20639;SDS011;10479;53.524;9.846;2022-12-18T17:35:36;55.45;;;17.80;;
20639;SDS011;10479;53.524;9.846;2022-12-18T17:38:21;50.88;;;18.48;;
20639;SDS011;10479;53.524;9.846;2022-12-18T17:41:07;51.67;;;18.20;;
20639;SDS011;10479;53.524;9.846;2022-12-18T17:43:55;48.00;;;17.58;;
20639;SDS011;10479;53.524;9.846;2022-12-18T17:46:42;47.17;;;18.35;;
20639;SDS011;10479;53.524;9.846;2022-12-18T17:49:28;52.70;;;17.27;;
20639;SDS011;10479;53.524;9.846;2022-12-18T17:52:10;47.30;;;15.90;;
20639;SDS011;10479;53.524;9.846;2022-12-18T17:54:56;50.40;;;16.92;;
20639;SDS011;10479;53.524;9.846;2022-12-18T17:57:41;44.13;;;16.67;;
20639;SDS011;10479;53.524;9.846;2022-12-18T18:00:27;40.58;;;15.93;;
20639;SDS011;10479;53.524;9.846;2022-12-18T18:03:13;48.75;;;17.38;;
20639;SDS011;10479;53.524;9.846;2022-12-18T18:05:56;36.22;;;15.13;;
20639;SDS011;10479;53.524;9.846;2022-12-18T18:08:46;47.42;;;16.15;;
20639;SDS011;10479;53.524;9.846;2022-12-18T18:11:32;42.33;;;15.73;;
20639;SDS011;10479;53.524;9.846;2022-12-18T18:14:35;40.55;;;14.85;;
20639;SDS011;10479;53.524;9.846;2022-12-18T18:17:12;41.00;;;15.57;;
20639;SDS011;10479;53.524;9.846;2022-12-18T18:19:57;40.40;;;15.65;;